Time;durP1;ratioP1;P1;durP2;ratioP2;P2;SDS_P1;SDS_P2;PMS_P1;PMS_P2;Temp;Humidity;BMP_temperature;BMP_pressure;BME280_temperature;BME280_humidity;BME280_pressure;Samples;Min_cycle;Max_cycle;Signal;HPM_P1;HPM_P2
2022/09/14 00:00:42;;;;;;;2.60;2.40;;;17.20;97.30;;;;;;4922369;29;20475;-94
2022/09/14 00:03:23;;;;;;;2.20;1.80;;;17.20;97.30;;;;;;4999300;28;20515;-93
2022/09/14 00:06:34;;;;;;;2.20;1.90;;;17.10;97.30;;;;;;4999438;28;20435;-94
2022/09/14 00:09:14;;;;;;;2.83;2.50;;;17.10;97.30;;;;;;4929173;29;20447;-92
2022/09/14 00:12:14;;;;;;;3.20;2.27;;;17.10;97.30;;;;;;4935446;29;20512;-93
2022/09/14 00:15:45;;;;;;;2.80;1.87;;;17.10;97.30;;;;;;4892932;29;20859;-94
2022/09/14 00:18:13;;;;;;;3.30;2.00;;;17.10;97.30;;;;;;4875449;29;20452;-91
2022/09/14 00:20:41;;;;;;;2.80;2.60;;;17.10;97.30;;;;;;4928738;29;20700;-93
2022/09/14 00:23:14;;;;;;;1.83;1.47;;;17.10;97.30;;;;;;4921622;29;20534;-93
2022/09/14 00:25:42;;;;;;;3.67;2.70;;;17.00;97.30;;;;;;4909268;29;20456;-94
2022/09/14 00:28:10;;;;;;;4.20;2.43;;;17.00;97.30;;;;;;4920903;29;20463;-94
2022/09/14 00:30:43;;;;;;;2.73;1.63;;;17.00;97.30;;;;;;4977048;28;20420;-93
2022/09/14 00:33:12;;;;;;;3.17;2.33;;;17.00;97.30;;;;;;5005586;28;20424;-91
2022/09/14 00:35:40;;;;;;;6.50;3.20;;;17.00;97.30;;;;;;5017480;28;20444;-94
2022/09/14 00:38:23;;;;;;;5.13;2.63;;;17.00;97.30;;;;;;5020480;28;20434;-94
2022/09/14 00:41:03;;;;;;;3.90;2.83;;;17.00;97.30;;;;;;5016098;28;20460;-93
2022/09/14 00:43:31;;;;;;;3.83;1.83;;;17.00;97.30;;;;;;5015908;28;20450;-93
2022/09/14 00:46:01;;;;;;;5.80;2.67;;;17.00;97.30;;;;;;5013660;28;20521;-95
2022/09/14 00:48:30;;;;;;;4.40;2.50;;;17.00;97.30;;;;;;5007045;28;20494;-93
2022/09/14 00:50:58;;;;;;;2.00;1.63;;;17.00;97.30;;;;;;5019122;28;20432;-93
2022/09/14 00:53:24;;;;;;;9.53;3.13;;;17.00;97.30;;;;;;5021655;28;20855;-93
2022/09/14 00:55:53;;;;;;;3.43;3.10;;;17.00;97.30;;;;;;5015233;28;20457;-94
2022/09/14 00:58:44;;;;;;;2.83;1.90;;;17.00;97.30;;;;;;5014436;28;20424;-94
2022/09/14 01:04:23;;;;;;;2.77;2.43;;;17.00;97.30;;;;;;4999009;28;20487;-94
2022/09/14 01:07:03;;;;;;;5.60;3.50;;;17.00;97.30;;;;;;5002966;28;20448;-93
2022/09/14 01:10:04;;;;;;;6.30;4.30;;;17.00;97.30;;;;;;4978355;28;20970;-94
2022/09/14 01:13:02;;;;;;;6.20;4.20;;;17.00;97.30;;;;;;4960945;28;20452;-94
2022/09/14 01:16:14;;;;;;;3.17;2.33;;;17.00;97.30;;;;;;4991025;28;20449;-94
2022/09/14 01:22:23;;;;;;;6.20;3.87;;;17.00;97.30;;;;;;4974990;28;20523;-94
2022/09/14 01:25:14;;;;;;;5.33;3.20;;;17.00;97.30;;;;;;4990497;28;20429;-93
2022/09/14 01:27:43;;;;;;;3.97;3.60;;;17.00;97.30;;;;;;4992387;28;20426;-94
2022/09/14 01:30:33;;;;;;;4.33;3.13;;;17.00;97.30;;;;;;4976422;28;20951;-93
2022/09/14 01:36:14;;;;;;;6.90;4.20;;;17.00;97.30;;;;;;5003844;28;21032;-94
2022/09/14 01:39:03;;;;;;;3.97;2.70;;;17.00;97.30;;;;;;5011981;28;20918;-92
2022/09/14 01:41:32;;;;;;;3.33;2.40;;;16.90;97.30;;;;;;4994792;28;20566;-94
2022/09/14 01:44:24;;;;;;;4.30;2.97;;;16.90;97.30;;;;;;4999938;28;20427;-94
2022/09/14 01:47:05;;;;;;;5.20;3.37;;;16.90;97.30;;;;;;4991462;28;20437;-93
2022/09/14 01:52:30;;;;;;;3.60;2.23;;;16.90;97.30;;;;;;4979984;28;20924;-92
2022/09/14 01:55:31;;;;;;;3.00;1.80;;;16.90;97.30;;;;;;5020820;28;21080;-94
2022/09/14 01:58:42;;;;;;;3.50;2.90;;;16.90;97.30;;;;;;5008233;28;20432;-93
2022/09/14 02:01:14;;;;;;;4.63;1.87;;;16.90;97.30;;;;;;5024046;28;20933;-96
2022/09/14 02:04:05;;;;;;;5.17;2.80;;;16.90;97.30;;;;;;5030828;28;20424;-93
2022/09/14 02:07:02;;;;;;;3.67;2.60;;;16.90;97.30;;;;;;5022508;28;20600;-94
2022/09/14 02:09:30;;;;;;;2.83;2.57;;;16.90;97.30;;;;;;5023028;28;20523;-96
2022/09/14 02:12:04;;;;;;;7.53;2.77;;;16.90;97.30;;;;;;5042026;28;20423;-94
2022/09/14 02:14:32;;;;;;;2.37;2.00;;;16.90;97.30;;;;;;5040102;28;20427;-94
2022/09/14 02:17:01;;;;;;;2.90;2.30;;;16.90;97.30;;;;;;5020761;28;20436;-94
2022/09/14 02:19:54;;;;;;;3.10;2.13;;;16.90;97.30;;;;;;5021613;28;20458;-94
2022/09/14 02:22:25;;;;;;;7.83;3.83;;;16.80;97.30;;;;;;5021357;28;20415;-94
2022/09/14 02:24:54;;;;;;;4.30;2.33;;;16.80;97.30;;;;;;5021995;28;20449;-94
2022/09/14 02:27:23;;;;;;;2.93;2.03;;;16.80;97.30;;;;;;5021107;28;20427;-94
2022/09/14 02:29:51;;;;;;;2.50;2.30;;;16.80;97.30;;;;;;5008978;28;20473;-94
2022/09/14 02:32:40;;;;;;;3.27;2.93;;;16.80;97.30;;;;;;5023863;28;20416;-94
2022/09/14 02:35:25;;;;;;;5.90;2.13;;;16.80;97.30;;;;;;5011920;28;20453;-94
2022/09/14 02:38:02;;;;;;;3.87;2.63;;;16.80;97.30;;;;;;5021664;28;20423;-94
2022/09/14 02:40:50;;;;;;;4.10;1.83;;;16.80;97.30;;;;;;5012903;28;20465;-94
2022/09/14 02:43:46;;;;;;;3.97;2.70;;;16.80;97.30;;;;;;5012909;28;20420;-94
2022/09/14 02:46:42;;;;;;;6.10;3.53;;;16.70;97.30;;;;;;5021622;28;20439;-94
2022/09/14 02:49:31;;;;;;;3.20;2.70;;;16.70;97.30;;;;;;5010228;28;20423;-94
2022/09/14 02:52:24;;;;;;;6.67;2.70;;;16.70;97.30;;;;;;5021212;28;20510;-93
2022/09/14 02:55:30;;;;;;;9.00;3.10;;;16.80;97.30;;;;;;5032584;28;20520;-93
2022/09/14 02:58:05;;;;;;;19.23;2.47;;;16.70;97.30;;;;;;5022245;28;20416;-94
2022/09/14 03:00:55;;;;;;;3.47;2.93;;;16.70;97.30;;;;;;5020737;28;20604;-94
2022/09/14 03:03:23;;;;;;;13.53;4.70;;;16.70;97.30;;;;;;5020515;28;20422;-92
2022/09/14 03:05:54;;;;;;;3.40;2.40;;;16.70;97.30;;;;;;5021313;28;20551;-94
2022/09/14 03:08:22;;;;;;;2.37;1.93;;;16.70;97.30;;;;;;5019948;28;20425;-94
2022/09/14 03:11:03;;;;;;;3.63;2.80;;;16.60;97.30;;;;;;5020395;28;20424;-93
2022/09/14 03:13:33;;;;;;;2.70;2.20;;;16.60;97.30;;;;;;5019606;28;20517;-94
2022/09/14 03:16:07;;;;;;;3.67;3.00;;;16.60;97.30;;;;;;5020459;28;20455;-94
2022/09/14 03:18:34;;;;;;;4.10;2.60;;;16.60;97.30;;;;;;5020548;28;20415;-94
2022/09/14 03:21:03;;;;;;;6.23;2.73;;;16.60;97.30;;;;;;5020142;28;20467;-94
2022/09/14 03:23:32;;;;;;;11.60;3.87;;;16.60;97.30;;;;;;5020258;28;20420;-94
2022/09/14 03:26:21;;;;;;;2.43;1.70;;;16.60;97.30;;;;;;5008128;28;20451;-94
2022/09/14 03:29:04;;;;;;;4.53;3.53;;;16.60;97.30;;;;;;5006623;28;20408;-94
2022/09/14 03:31:33;;;;;;;3.50;2.33;;;16.60;97.30;;;;;;5020628;28;20426;-93
2022/09/14 03:34:01;;;;;;;3.03;2.47;;;16.50;97.30;;;;;;5023822;28;20423;-94
2022/09/14 03:36:31;;;;;;;2.03;1.70;;;16.50;97.30;;;;;;5024211;28;20448;-94
2022/09/14 03:39:02;;;;;;;2.17;1.77;;;16.50;97.30;;;;;;5037638;28;20511;-93
2022/09/14 03:41:33;;;;;;;4.80;2.80;;;16.50;97.30;;;;;;5018983;28;20415;-94
2022/09/14 03:44:02;;;;;;;4.90;1.67;;;16.50;97.30;;;;;;5020296;28;20513;-94
2022/09/14 03:46:30;;;;;;;1.90;1.70;;;16.50;97.30;;;;;;5019570;28;20519;-94
2022/09/14 03:49:04;;;;;;;3.20;2.70;;;16.50;97.30;;;;;;5020059;28;20418;-94
2022/09/14 03:51:33;;;;;;;2.40;2.20;;;16.50;97.30;;;;;;5020921;28;20416;-94
2022/09/14 03:54:02;;;;;;;1.80;1.70;;;16.50;97.30;;;;;;5019977;28;20477;-94
2022/09/14 03:56:30;;;;;;;2.20;2.00;;;16.50;97.30;;;;;;5006897;28;21011;-94
2022/09/14 03:59:10;;;;;;;2.43;1.83;;;16.50;97.30;;;;;;5020610;28;20424;-94
2022/09/14 04:01:43;;;;;;;2.23;2.03;;;16.50;97.30;;;;;;5020834;28;20419;-94
2022/09/14 04:04:12;;;;;;;2.27;1.83;;;16.50;97.30;;;;;;5037527;28;20419;-93
2022/09/14 04:06:52;;;;;;;1.77;1.50;;;16.50;97.30;;;;;;5012748;28;20436;-93
2022/09/14 04:09:20;;;;;;;3.60;2.50;;;16.50;97.30;;;;;;5035128;28;20418;-93
2022/09/14 04:11:51;;;;;;;1.73;1.40;;;16.40;97.30;;;;;;5010922;28;20524;-93
2022/09/14 04:14:21;;;;;;;2.80;1.70;;;16.50;97.30;;;;;;5020319;28;20953;-93
2022/09/14 04:16:54;;;;;;;3.43;2.27;;;16.40;97.30;;;;;;5020824;28;20450;-93
2022/09/14 04:19:23;;;;;;;4.30;2.50;;;16.40;97.30;;;;;;5014935;28;21041;-94
2022/09/14 04:21:51;;;;;;;21.03;2.90;;;16.40;97.30;;;;;;5023758;28;20495;-94
2022/09/14 04:24:22;;;;;;;1.97;1.87;;;16.40;97.30;;;;;;5035095;28;20418;-93
2022/09/14 04:26:55;;;;;;;1.73;1.40;;;16.40;97.30;;;;;;5024807;28;20954;-94
2022/09/14 04:29:31;;;;;;;2.47;1.97;;;16.40;97.30;;;;;;5036376;28;20592;-94
2022/09/14 04:32:22;;;;;;;1.87;1.77;;;16.40;97.30;;;;;;5019592;28;20415;-93
2022/09/14 04:34:51;;;;;;;3.43;2.40;;;16.30;97.30;;;;;;5010587;28;20518;-93
2022/09/14 04:37:24;;;;;;;2.53;2.33;;;16.30;97.30;;;;;;5020109;28;20412;-94
2022/09/14 04:39:52;;;;;;;3.10;2.07;;;16.30;97.30;;;;;;5023045;28;20457;-94
2022/09/14 04:42:21;;;;;;;2.33;2.10;;;16.30;97.30;;;;;;5023682;28;20420;-93
2022/09/14 04:45:30;;;;;;;1.50;1.40;;;16.30;97.30;;;;;;5021614;28;20854;-94
2022/09/14 04:48:03;;;;;;;4.73;2.47;;;16.20;97.30;;;;;;5015193;28;20780;-94
2022/09/14 04:50:32;;;;;;;8.50;2.97;;;16.20;97.30;;;;;;5019816;28;20423;-94
2022/09/14 04:53:05;;;;;;;1.50;1.40;;;16.20;97.30;;;;;;5020220;28;20430;-93
2022/09/14 04:55:34;;;;;;;4.50;2.77;;;16.20;97.30;;;;;;5019544;28;20984;-93
2022/09/14 04:58:02;;;;;;;1.97;1.87;;;16.20;97.30;;;;;;5019973;28;20439;-94
2022/09/14 05:00:33;;;;;;;3.40;2.70;;;16.20;97.30;;;;;;5025442;28;20470;-94
2022/09/14 05:03:00;;;;;;;5.53;3.33;;;16.20;97.30;;;;;;5018326;28;20415;-94
2022/09/14 05:05:44;;;;;;;5.40;4.00;;;16.20;97.30;;;;;;5003374;28;20435;-94
2022/09/14 05:08:12;;;;;;;5.30;2.67;;;16.20;97.30;;;;;;5010735;28;20445;-94
2022/09/14 05:10:40;;;;;;;4.23;3.23;;;16.20;97.30;;;;;;5017567;28;20473;-94
2022/09/14 05:13:23;;;;;;;3.50;2.93;;;16.20;97.30;;;;;;5019090;28;20423;-94
2022/09/14 05:15:51;;;;;;;5.30;2.10;;;16.20;97.30;;;;;;5020065;28;20504;-94
2022/09/14 05:18:24;;;;;;;1.90;1.80;;;16.10;97.30;;;;;;5036732;28;20514;-93
2022/09/14 05:20:52;;;;;;;1.93;1.67;;;16.10;97.30;;;;;;5019620;28;20862;-94
2022/09/14 05:23:33;;;;;;;2.07;1.93;;;16.10;97.30;;;;;;5036177;28;21001;-94
2022/09/14 05:26:05;;;;;;;4.30;3.17;;;16.10;97.30;;;;;;5056694;23;20617;-89
2022/09/14 05:28:33;;;;;;;2.00;1.90;;;16.10;97.30;;;;;;5027376;28;20494;-89
2022/09/14 05:31:15;;;;;;;2.60;2.00;;;16.10;97.30;;;;;;5012475;28;20416;-89
2022/09/14 05:37:13;;;;;;;2.87;1.70;;;16.20;97.30;;;;;;5024850;28;20446;-90
2022/09/14 05:39:54;;;;;;;1.60;1.50;;;16.20;97.30;;;;;;5032098;28;20542;-90
2022/09/14 05:42:34;;;;;;;1.60;1.53;;;16.20;97.30;;;;;;5048107;28;20175;-89
2022/09/14 05:45:44;;;;;;;2.50;2.30;;;16.20;97.30;;;;;;5028958;28;20936;-90
2022/09/14 05:48:53;;;;;;;8.23;2.57;;;16.20;97.30;;;;;;5045069;28;21001;-89
2022/09/14 05:51:34;;;;;;;1.47;1.40;;;16.20;97.30;;;;;;5032230;28;20426;-90
2022/09/14 05:54:13;;;;;;;2.57;2.37;;;16.20;97.30;;;;;;5048200;28;20475;-89
2022/09/14 05:57:14;;;;;;;1.57;1.47;;;16.20;97.30;;;;;;5031799;28;20520;-90
2022/09/14 06:03:23;;;;;;;2.90;1.90;;;16.30;97.30;;;;;;4989963;28;20417;-90
2022/09/14 06:06:25;;;;;;;6.60;2.80;;;16.20;97.30;;;;;;5007428;28;20428;-89
2022/09/14 06:08:54;;;;;;;1.60;1.57;;;16.20;97.30;;;;;;4900525;29;20946;-90
2022/09/14 06:11:43;;;;;;;2.43;2.10;;;16.30;97.30;;;;;;4990386;28;20416;-90
2022/09/14 06:14:18;;;;;;;2.30;1.80;;;16.30;97.30;;;;;;5007723;28;20412;-90
2022/09/14 06:16:44;;;;;;;2.50;2.00;;;16.30;97.30;;;;;;5007202;28;20751;-89
2022/09/14 06:19:23;;;;;;;1.57;1.57;;;16.30;97.30;;;;;;4995187;28;20501;-90
2022/09/14 06:21:55;;;;;;;4.30;1.33;;;16.30;97.30;;;;;;5015111;28;20452;-90
2022/09/14 06:24:23;;;;;;;2.37;2.17;;;16.30;97.30;;;;;;5052048;28;20975;-89
2022/09/14 06:27:02;;;;;;;2.23;1.97;;;16.30;97.30;;;;;;5034980;28;20699;-90
2022/09/14 06:29:34;;;;;;;2.53;2.17;;;16.40;97.30;;;;;;5022812;28;20432;-90
2022/09/14 06:32:03;;;;;;;3.30;3.10;;;16.40;97.30;;;;;;5035192;28;20418;-90
2022/09/14 06:34:42;;;;;;;2.23;2.03;;;16.40;97.30;;;;;;5022746;28;20457;-90
2022/09/14 06:37:14;;;;;;;1.70;1.63;;;16.40;97.30;;;;;;5022308;28;20436;-90
2022/09/14 06:39:42;;;;;;;1.43;1.40;;;16.40;97.30;;;;;;5035246;28;20458;-90
2022/09/14 06:42:08;;;;;;;3.87;1.97;;;16.40;97.30;;;;;;5034883;28;20488;-90
2022/09/14 06:44:33;;;;;;;10.30;1.77;;;16.40;97.30;;;;;;5034649;28;20426;-89
2022/09/14 06:46:59;;;;;;;1.30;1.20;;;16.40;97.30;;;;;;5034793;28;20199;-90
2022/09/14 06:49:24;;;;;;;5.53;2.33;;;16.40;97.30;;;;;;5034951;28;20211;-90
2022/09/14 06:51:50;;;;;;;2.33;1.37;;;16.40;97.30;;;;;;5052542;28;20183;-90
2022/09/14 06:54:17;;;;;;;1.33;1.00;;;16.40;97.30;;;;;;5050910;28;20245;-90
2022/09/14 06:56:44;;;;;;;1.13;1.00;;;16.40;97.30;;;;;;5025224;28;20673;-90
2022/09/14 06:59:11;;;;;;;1.57;1.50;;;16.50;97.30;;;;;;5031756;28;20776;-90
2022/09/14 07:01:37;;;;;;;1.93;1.60;;;16.50;97.30;;;;;;5034324;28;20480;-90
2022/09/14 07:04:04;;;;;;;1.43;1.33;;;16.50;97.30;;;;;;5036839;28;20959;-90
2022/09/14 07:06:32;;;;;;;2.63;1.73;;;16.50;97.30;;;;;;5034731;28;20968;-90
2022/09/14 07:08:58;;;;;;;5.10;1.87;;;16.50;97.30;;;;;;5030469;28;20439;-90
2022/09/14 07:11:26;;;;;;;1.50;1.40;;;16.50;97.30;;;;;;5025929;28;20468;-89
2022/09/14 07:13:57;;;;;;;3.07;2.80;;;16.50;97.30;;;;;;5034557;28;20411;-89
2022/09/14 07:16:24;;;;;;;1.10;1.03;;;16.50;97.30;;;;;;5034840;28;20858;-89
2022/09/14 07:18:57;;;;;;;1.30;1.20;;;16.50;97.30;;;;;;5034152;28;20423;-89
2022/09/14 07:21:24;;;;;;;1.00;0.90;;;16.50;97.30;;;;;;5034866;28;20430;-90
2022/09/14 07:23:50;;;;;;;1.13;1.10;;;16.40;97.30;;;;;;5035775;28;20422;-90
2022/09/14 07:26:17;;;;;;;5.50;2.03;;;16.50;97.30;;;;;;5035877;28;20469;-90
2022/09/14 07:28:45;;;;;;;3.43;1.10;;;16.40;97.30;;;;;;5015407;28;20274;-89
2022/09/14 07:31:17;;;;;;;7.17;1.97;;;16.40;97.30;;;;;;5015863;28;20433;-90
2022/09/14 07:33:43;;;;;;;3.73;3.37;;;16.40;97.30;;;;;;5014898;28;20926;-90
2022/09/14 07:36:10;;;;;;;1.93;1.83;;;16.40;97.30;;;;;;5030832;28;20521;-90
2022/09/14 07:38:36;;;;;;;1.67;1.47;;;16.40;97.30;;;;;;5030790;28;20238;-90
2022/09/14 07:41:02;;;;;;;1.60;1.50;;;16.40;97.30;;;;;;5030746;28;20466;-90
2022/09/14 07:43:28;;;;;;;1.40;1.30;;;16.40;97.30;;;;;;5014038;28;20238;-90
2022/09/14 07:45:54;;;;;;;2.20;1.33;;;16.40;97.30;;;;;;5013701;28;20435;-90
2022/09/14 07:48:19;;;;;;;1.60;1.50;;;16.40;97.30;;;;;;5030738;28;20434;-89
2022/09/14 07:50:45;;;;;;;1.43;1.40;;;16.40;97.30;;;;;;5014492;28;20192;-90
2022/09/14 07:53:11;;;;;;;2.90;2.27;;;16.50;97.30;;;;;;5014373;28;20188;-89
2022/09/14 07:55:40;;;;;;;2.77;1.50;;;16.50;97.30;;;;;;5036021;28;20446;-90
2022/09/14 07:58:06;;;;;;;1.53;1.50;;;16.50;97.30;;;;;;5037113;28;20185;-90
2022/09/14 08:00:32;;;;;;;2.37;1.50;;;16.50;97.30;;;;;;5034979;28;20466;-89
2022/09/14 08:02:58;;;;;;;2.47;1.40;;;16.50;97.30;;;;;;5037932;28;20434;-90
2022/09/14 08:05:24;;;;;;;1.90;1.40;;;16.50;97.30;;;;;;5014170;28;20514;-90
2022/09/14 08:07:54;;;;;;;6.23;2.10;;;16.60;97.30;;;;;;5013712;28;20184;-89
2022/09/14 08:10:20;;;;;;;1.37;1.30;;;16.60;97.30;;;;;;5014522;28;20490;-89
2022/09/14 08:12:50;;;;;;;2.07;1.30;;;16.60;97.30;;;;;;5013835;28;20584;-90
2022/09/14 08:15:16;;;;;;;1.77;1.27;;;16.60;97.30;;;;;;5008284;28;20619;-90
2022/09/14 08:17:42;;;;;;;6.00;1.77;;;16.60;97.30;;;;;;5048310;28;20419;-89
2022/09/14 08:20:07;;;;;;;4.40;1.47;;;16.60;97.30;;;;;;5042377;28;20207;-89
2022/09/14 08:22:33;;;;;;;1.33;1.30;;;16.60;97.30;;;;;;5042332;28;20172;-90
2022/09/14 08:24:58;;;;;;;4.40;1.97;;;16.60;97.30;;;;;;5012830;28;20315;-89
2022/09/14 08:27:24;;;;;;;2.70;1.53;;;16.60;97.30;;;;;;5026316;28;20260;-90
2022/09/14 08:29:49;;;;;;;1.40;1.30;;;16.50;97.30;;;;;;5032961;28;20642;-90
2022/09/14 08:32:15;;;;;;;1.93;1.10;;;16.50;97.30;;;;;;5032799;28;20186;-89
2022/09/14 08:34:40;;;;;;;8.53;1.87;;;16.50;97.30;;;;;;5049690;28;20179;-90
2022/09/14 08:37:06;;;;;;;1.20;1.10;;;16.60;97.30;;;;;;5029616;28;20251;-90
2022/09/14 08:39:31;;;;;;;1.23;1.13;;;16.60;97.30;;;;;;5036493;28;20647;-90
2022/09/14 08:41:59;;;;;;;1.13;1.03;;;16.60;97.30;;;;;;5050848;28;20180;-90
2022/09/14 08:44:49;;;;;;;1.30;1.20;;;16.60;97.30;;;;;;5038130;28;20242;-90
2022/09/14 08:47:26;;;;;;;1.10;1.00;;;16.60;97.30;;;;;;5032701;28;20445;-89
2022/09/14 08:50:17;;;;;;;2.50;1.40;;;16.60;97.30;;;;;;5049676;28;20422;-90
2022/09/14 08:52:47;;;;;;;1.30;1.00;;;16.60;97.30;;;;;;5046097;28;20488;-89
2022/09/14 08:55:40;;;;;;;1.83;1.73;;;16.60;97.30;;;;;;5046882;28;20423;-89
2022/09/14 08:58:08;;;;;;;1.20;1.20;;;16.60;97.30;;;;;;5033131;28;20418;-88
2022/09/14 09:00:47;;;;;;;1.33;1.23;;;16.60;97.30;;;;;;5048692;28;20458;-89
2022/09/14 09:03:59;;;;;;;1.03;0.97;;;16.60;97.30;;;;;;5026299;28;20475;-89
2022/09/14 09:06:24;;;;;;;5.17;2.30;;;16.70;97.30;;;;;;4987775;28;20473;-90
2022/09/14 09:09:15;;;;;;;1.10;1.10;;;16.70;97.30;;;;;;5049116;28;20941;-90
2022/09/14 09:11:47;;;;;;;2.43;2.23;;;16.70;97.30;;;;;;5048957;28;20447;-90
2022/09/14 09:14:35;;;;;;;9.47;1.27;;;16.80;97.30;;;;;;5049130;28;20418;-90
2022/09/14 09:17:09;;;;;;;1.37;1.23;;;16.80;97.30;;;;;;5028417;28;20442;-89
2022/09/14 09:19:56;;;;;;;2.40;1.20;;;16.70;97.30;;;;;;5032108;28;20456;-89
2022/09/14 09:22:24;;;;;;;1.20;1.10;;;16.80;97.30;;;;;;5032632;28;21022;-89
2022/09/14 09:24:53;;;;;;;1.80;1.20;;;16.80;97.30;;;;;;5030970;28;20406;-89
2022/09/14 09:27:26;;;;;;;1.40;1.00;;;16.80;97.30;;;;;;5017956;28;20564;-89
2022/09/14 09:29:55;;;;;;;1.10;1.00;;;16.80;97.30;;;;;;5019207;28;20940;-89
2022/09/14 09:32:24;;;;;;;1.17;1.07;;;16.80;97.30;;;;;;5022078;28;20439;-89
2022/09/14 09:34:53;;;;;;;1.10;1.00;;;16.90;97.30;;;;;;5036008;28;20454;-90
2022/09/14 09:37:25;;;;;;;1.77;1.67;;;16.90;97.30;;;;;;5033658;28;20447;-89
2022/09/14 09:39:53;;;;;;;3.70;1.03;;;16.90;97.30;;;;;;5012474;28;20462;-91
2022/09/14 09:46:05;;;;;;;1.00;0.90;;;16.90;97.30;;;;;;5002795;28;20985;-89
2022/09/14 09:48:59;;;;;;;;;;;;;;;;;;;;;
2022/09/14 09:51:51;;;;;;;1.30;1.07;;;17.00;97.30;;;;;;5041471;28;20422;-90
2022/09/14 09:54:30;;;;;;;1.50;1.20;;;16.90;97.30;;;;;;5006902;28;20707;-90
2022/09/14 09:57:01;;;;;;;1.30;1.20;;;16.90;97.30;;;;;;5015527;28;20445;-90
2022/09/14 09:59:35;;;;;;;1.00;0.90;;;17.00;97.30;;;;;;5015582;28;20455;-89
2022/09/14 10:02:30;;;;;;;1.20;1.10;;;17.00;97.30;;;;;;5030136;28;20415;-90
2022/09/14 10:05:05;;;;;;;1.20;1.10;;;17.00;97.30;;;;;;5029795;28;20415;-90
2022/09/14 10:07:33;;;;;;;4.40;2.00;;;17.00;97.30;;;;;;5042288;28;20438;-89
2022/09/14 10:10:08;;;;;;;1.07;0.97;;;17.00;97.30;;;;;;5002285;28;20918;-89
2022/09/14 10:12:35;;;;;;;1.10;1.00;;;17.00;97.30;;;;;;5032292;28;20418;-90
2022/09/14 10:15:12;;;;;;;1.10;1.00;;;17.10;97.30;;;;;;5050410;28;20425;-89
2022/09/14 10:17:37;;;;;;;1.03;0.93;;;17.10;97.30;;;;;;5015794;28;20425;-89
2022/09/14 10:20:04;;;;;;;1.43;1.23;;;17.10;97.30;;;;;;5035345;28;20549;-89
2022/09/14 10:22:34;;;;;;;1.03;0.93;;;17.10;97.30;;;;;;5039422;28;20192;-89
2022/09/14 10:25:15;;;;;;;1.17;1.10;;;17.10;97.30;;;;;;5015940;28;20422;-89
2022/09/14 10:27:54;;;;;;;1.17;1.07;;;17.10;97.30;;;;;;5029571;28;20545;-89
2022/09/14 10:34:14;;;;;;;2.10;1.07;;;17.10;97.30;;;;;;5030966;28;20508;-90
2022/09/14 10:37:14;;;;;;;1.30;1.20;;;17.10;97.30;;;;;;5025966;28;20453;-90
2022/09/14 10:43:10;;;;;;;1.20;1.20;;;17.10;97.30;;;;;;5022798;28;20746;-89
2022/09/14 10:45:52;;;;;;;1.20;1.10;;;17.10;97.30;;;;;;5035305;28;20439;-89
2022/09/14 10:48:26;;;;;;;1.70;1.50;;;17.10;97.30;;;;;;5027743;28;20672;-90
2022/09/14 10:51:39;;;;;;;1.53;1.43;;;17.10;97.30;;;;;;5044479;28;20423;-90
2022/09/14 10:54:32;;;;;;;1.20;1.17;;;17.00;97.30;;;;;;5049866;28;20944;-88
2022/09/14 10:57:08;;;;;;;1.93;1.83;;;17.00;97.30;;;;;;5051273;28;20438;-88
2022/09/14 10:59:46;;;;;;;1.17;1.10;;;17.00;97.30;;;;;;5033534;28;20461;-87
2022/09/14 11:02:34;;;;;;;1.50;1.50;;;17.00;97.30;;;;;;5033771;28;20406;-89
2022/09/14 11:05:57;;;;;;;1.53;1.20;;;17.00;97.30;;;;;;5046950;28;20450;-90
2022/09/14 11:08:51;;;;;;;3.67;1.93;;;17.00;97.30;;;;;;4970384;28;20422;-89
2022/09/14 11:11:28;;;;;;;8.60;2.40;;;17.00;97.30;;;;;;5023250;28;20415;-89
2022/09/14 11:14:22;;;;;;;1.03;1.00;;;17.00;97.30;;;;;;5034680;28;20424;-90
2022/09/14 11:17:09;;;;;;;1.20;1.10;;;17.00;97.30;;;;;;5030465;28;20938;-90
2022/09/14 11:19:53;;;;;;;1.17;1.13;;;17.00;97.30;;;;;;5034756;28;20458;-91
2022/09/14 11:22:50;;;;;;;1.20;0.90;;;16.90;97.30;;;;;;5034760;28;20560;-90
2022/09/14 11:25:21;;;;;;;1.20;1.10;;;16.90;97.30;;;;;;5033320;28;20933;-89
2022/09/14 11:27:53;;;;;;;1.30;1.30;;;16.80;97.30;;;;;;5046806;23;20541;-90
2022/09/14 11:30:21;;;;;;;1.50;1.47;;;16.80;97.30;;;;;;5028754;28;20461;-90
2022/09/14 11:33:03;;;;;;;1.50;1.47;;;16.80;97.30;;;;;;5014550;28;20438;-90
2022/09/14 11:35:50;;;;;;;3.23;1.67;;;16.80;97.30;;;;;;5031417;28;20469;-90
2022/09/14 11:38:19;;;;;;;1.50;1.37;;;16.80;97.30;;;;;;5031052;28;20434;-90
2022/09/14 11:40:59;;;;;;;2.63;1.07;;;16.80;97.30;;;;;;5052346;28;20462;-90
2022/09/14 11:43:46;;;;;;;1.17;1.07;;;16.80;97.30;;;;;;5034920;28;20493;-90
2022/09/14 11:46:18;;;;;;;1.30;1.20;;;16.80;97.30;;;;;;5050869;28;20473;-90
2022/09/14 11:49:10;;;;;;;2.43;1.40;;;16.80;97.30;;;;;;5035277;28;20418;-89
2022/09/14 11:51:43;;;;;;;1.43;1.37;;;16.80;97.30;;;;;;5052296;28;20426;-90
2022/09/14 11:54:20;;;;;;;1.30;1.10;;;16.80;97.30;;;;;;5034287;28;20422;-91
2022/09/14 11:56:50;;;;;;;2.40;1.47;;;16.80;97.30;;;;;;5034659;28;20433;-91
2022/09/14 11:59:35;;;;;;;1.40;1.30;;;16.90;97.30;;;;;;5021525;28;20430;-90
2022/09/14 12:02:26;;;;;;;1.87;1.30;;;16.80;97.30;;;;;;5035327;28;20427;-90
2022/09/14 12:05:04;;;;;;;3.57;1.50;;;16.90;97.30;;;;;;5035042;28;20411;-91
2022/09/14 12:07:38;;;;;;;1.63;1.10;;;16.90;97.30;;;;;;5035034;28;20835;-91
2022/09/14 12:10:13;;;;;;;1.30;1.10;;;16.80;97.30;;;;;;5052187;28;20424;-90
2022/09/14 12:12:57;;;;;;;1.43;1.33;;;16.80;97.30;;;;;;5031301;28;20472;-91
2022/09/14 12:15:26;;;;;;;1.00;0.93;;;16.80;97.30;;;;;;5023721;28;20423;-91
2022/09/14 12:18:12;;;;;;;2.77;1.50;;;16.80;97.30;;;;;;5034649;28;20446;-91
2022/09/14 12:21:17;;;;;;;2.47;1.40;;;16.80;97.30;;;;;;5034689;28;20529;-91
2022/09/14 12:23:45;;;;;;;1.30;1.20;;;16.80;97.30;;;;;;5042066;28;20426;-91
2022/09/14 12:26:16;;;;;;;2.77;1.33;;;16.80;97.30;;;;;;5034449;28;20425;-91
2022/09/14 12:28:49;;;;;;;1.30;1.20;;;16.80;97.30;;;;;;5042708;28;20462;-91
2022/09/14 12:31:42;;;;;;;1.43;1.33;;;16.80;97.30;;;;;;5034480;28;20448;-91
2022/09/14 12:34:16;;;;;;;1.40;1.30;;;16.80;97.30;;;;;;5033580;28;20492;-91
2022/09/14 12:36:42;;;;;;;1.57;1.47;;;16.80;97.30;;;;;;5034077;28;20449;-91
2022/09/14 12:39:21;;;;;;;1.63;1.53;;;16.80;97.30;;;;;;5037396;28;20438;-91
2022/09/14 12:41:47;;;;;;;1.83;1.57;;;16.80;97.30;;;;;;5034186;28;20638;-91
2022/09/14 12:44:33;;;;;;;2.00;1.70;;;16.80;97.30;;;;;;5033958;28;20421;-91
2022/09/14 12:47:24;;;;;;;2.13;1.47;;;16.80;97.30;;;;;;5030463;28;20192;-90
2022/09/14 12:49:52;;;;;;;2.90;1.87;;;16.80;97.30;;;;;;5034706;28;20422;-91
2022/09/14 12:52:43;;;;;;;4.00;2.30;;;16.80;97.30;;;;;;5050601;28;20415;-90
2022/09/14 12:55:35;;;;;;;1.27;1.17;;;16.80;97.30;;;;;;5033848;28;20415;-90
2022/09/14 12:58:15;;;;;;;1.50;1.50;;;16.80;97.30;;;;;;5033614;28;20495;-90
2022/09/14 13:01:09;;;;;;;1.80;1.30;;;16.90;97.30;;;;;;5033714;28;20450;-90
2022/09/14 13:03:46;;;;;;;3.83;1.57;;;16.90;97.30;;;;;;5037754;28;20429;-90
2022/09/14 13:06:13;;;;;;;1.30;1.20;;;16.90;97.30;;;;;;5033285;28;20602;-90
2022/09/14 13:08:43;;;;;;;2.30;1.60;;;16.90;97.30;;;;;;5029504;28;20443;-89
2022/09/14 13:11:09;;;;;;;1.70;1.60;;;16.80;97.30;;;;;;5033173;28;20419;-90
2022/09/14 13:13:35;;;;;;;1.40;1.30;;;16.80;97.30;;;;;;5032644;28;20704;-90
2022/09/14 13:16:04;;;;;;;1.20;1.13;;;16.80;97.30;;;;;;5032595;28;20175;-91
2022/09/14 13:18:35;;;;;;;1.57;1.40;;;16.80;97.30;;;;;;5033205;28;20866;-90
2022/09/14 13:21:15;;;;;;;4.43;1.50;;;16.80;97.30;;;;;;5032758;28;20465;-90
2022/09/14 13:23:41;;;;;;;1.37;1.27;;;16.80;97.30;;;;;;5051371;28;20512;-90
2022/09/14 13:26:14;;;;;;;1.30;1.20;;;16.80;97.30;;;;;;5032579;28;20505;-90
2022/09/14 13:28:43;;;;;;;1.00;1.00;;;16.90;97.30;;;;;;5033061;28;20479;-90
2022/09/14 13:31:13;;;;;;;3.13;2.43;;;16.90;97.30;;;;;;5032728;28;20803;-90
2022/09/14 13:33:46;;;;;;;1.30;1.20;;;16.90;97.30;;;;;;5033248;28;20418;-90
2022/09/14 13:36:17;;;;;;;3.37;3.00;;;16.90;97.30;;;;;;5032734;28;20417;-90
2022/09/14 13:38:42;;;;;;;1.60;1.50;;;16.90;97.30;;;;;;5051065;28;20501;-90
2022/09/14 13:41:12;;;;;;;1.50;1.40;;;16.90;97.30;;;;;;5033092;28;21055;-90
2022/09/14 13:43:40;;;;;;;1.30;1.20;;;16.90;97.30;;;;;;5033010;28;20233;-90
2022/09/14 13:46:07;;;;;;;2.33;1.90;;;16.90;97.30;;;;;;5051327;28;20468;-90
2022/09/14 13:48:34;;;;;;;2.97;1.97;;;16.80;97.30;;;;;;5032883;28;20438;-90
2022/09/14 13:51:03;;;;;;;1.23;1.10;;;16.80;97.30;;;;;;5033475;28;20442;-90
2022/09/14 13:53:44;;;;;;;3.37;2.13;;;16.80;97.30;;;;;;5032477;28;20476;-90
2022/09/14 13:56:33;;;;;;;1.20;1.10;;;16.70;97.30;;;;;;5033333;28;20999;-90
2022/09/14 13:59:21;;;;;;;1.40;1.30;;;16.70;97.30;;;;;;5033224;28;20422;-90
2022/09/14 14:02:31;;;;;;;1.73;1.27;;;16.70;97.30;;;;;;5032518;28;20437;-90
2022/09/14 14:06:00;;;;;;;1.10;1.03;;;16.60;97.30;;;;;;5049877;28;20417;-90